Rock Point, AZ

8:35 AM MDT on August 21, 2014 (GMT -0600)
Blanding | Change Station
CLOSE
Current Station
Airport
Location: Blanding,
Elevation: 5866 ft
Nearby Weather Stations

Elev 5866 ft 37.58 °N, 109.48 °W | Updated 20 minutes ago

Clear
Clear
64 °F
Feels Like 64 °F
N
6
Wind Variable Wind from NE

Today
High -- | Low -- °F
--% Chance of Precip.
Yesterday
High -- | Low -- °F
Precip. -- in
6:40 AM 8:01 PM
Waning Crescent, 14% visible
Pressure 30.27 in
Visibility 10.0 miles
Clouds Clear
Dew Point 44 °F
Humidity 49%
Rainfall 0.00 in
Snow Depth Not available.
UV 1 out of 12
Pollen 7.70 out of 12
Air Quality Not available.
Flu Activity Not available.
METAR KBDG 211415Z AUTO 04005KT 10SM CLR 18/07 A3027 RMK AO1 T01770068

More Conditions Fewer Conditions

Pressure 30.27 in
Visibility 10.0 miles
Clouds Clear
Dew Point 44 °F
Humidity 49%
Rainfall 0.00 in
Snow Depth Not available.
UV 1 out of 12
Pollen 7.70 out of 12
Air Quality Not available.
Flu Activity Not available.
METAR KBDG 211415Z AUTO 04005KT 10SM CLR 18/07 A3027 RMK AO1 T01770068

More Conditions Fewer Conditions

10-Day Weather Forecast

Almanac

Astronomy

Aug. 21, 2014 Rise Set
Actual Time 6:40 AM MDT 8:01 PM MDT
Civil Twilight 6:13 AM MDT 8:28 PM MDT
Nautical Twilight 5:41 AM MDT 9:01 PM MDT
Astronomical Twilight 5:07 AM MDT 9:34 PM MDT
Moon 3:16 AM MDT 5:30 PM MDT
Length of Visible Light 14h 15m
Length of Day
13h 21m
Tomorrow will be 2m 9s shorter.
Waning Crescent, 14% of the Moon is Illuminated
Today
Waning Crescent
Aug 25
New
Sep 2
First Quarter
Sep 8
Full
Sep 15
Last Quarter

Today's Extremes

State Highs State Lows

Community

WunderPhotos

Upload Photos

1,745,932 photos uploaded!

WunderBlogs® & News

By Dr. Jeff Masters
Director of Meteorology, Weather Underground
By Kari Strenfel
Meteorologist, Weather Underground
By Christopher C. Burt
Weather Historian, Weather Underground
August 21, 2014
August 21, 2014
August 21, 2014

Nearby

Snow Depth

Station Depth Elevation
Snowslide Canyon 1 in 9730 ft
Mormon Mountain 0 in 7500 ft
Heber 0 in 7640 ft
White Horse Lake 1 in 7180 ft
Promontory 0 in 7930 ft

Earthquake Activity

City Distance Mag. Time & Date
No recent earthquake activity has been reported nearby.
Minimum magnitude displayed is 2.5.

Coastal Water Temperatures

Place Temperature
No Stations Reporting

Nearby Weather Stations